sensor_id;sensor_type;location;lat;lon;timestamp;pressure;altitude;pressure_sealevel;temperature;humidity
53858;BME280;39763;51.188;6.690;2022-07-04T00:01:28;101655.72;;;19.79;51.12
53858;BME280;39763;51.188;6.690;2022-07-04T00:03:00;101658.13;;;19.84;51.01
53858;BME280;39763;51.188;6.690;2022-07-04T00:04:32;101659.69;;;19.88;50.93
53858;BME280;39763;51.188;6.690;2022-07-04T00:06:05;101669.28;;;19.90;50.87
53858;BME280;39763;51.188;6.690;2022-07-04T00:07:37;101667.47;;;19.91;50.94
53858;BME280;39763;51.188;6.690;2022-07-04T00:09:09;101657.66;;;19.91;50.94
53858;BME280;39763;51.188;6.690;2022-07-04T00:10:41;101659.31;;;19.94;50.68
53858;BME280;39763;51.188;6.690;2022-07-04T00:12:13;101664.47;;;19.97;50.58
53858;BME280;39763;51.188;6.690;2022-07-04T00:13:44;101665.34;;;19.97;50.52
53858;BME280;39763;51.188;6.690;2022-07-04T00:15:16;101665.41;;;19.96;50.44
53858;BME280;39763;51.188;6.690;2022-07-04T00:16:48;101671.78;;;19.93;50.42
53858;BME280;39763;51.188;6.690;2022-07-04T00:18:20;101668.63;;;19.87;50.58
53858;BME280;39763;51.188;6.690;2022-07-04T00:19:52;101666.91;;;19.86;50.82
53858;BME280;39763;51.188;6.690;2022-07-04T00:21:25;101662.59;;;19.83;50.81
53858;BME280;39763;51.188;6.690;2022-07-04T00:22:57;101662.00;;;19.78;50.88
53858;BME280;39763;51.188;6.690;2022-07-04T00:24:28;101662.00;;;19.78;50.82
53858;BME280;39763;51.188;6.690;2022-07-04T00:26:00;101664.50;;;19.81;50.90
53858;BME280;39763;51.188;6.690;2022-07-04T00:27:32;101658.97;;;19.84;50.67
53858;BME280;39763;51.188;6.690;2022-07-04T00:29:04;101657.09;;;19.86;50.54
53858;BME280;39763;51.188;6.690;2022-07-04T00:30:35;101662.44;;;19.86;50.57
53858;BME280;39763;51.188;6.690;2022-07-04T00:32:08;101665.88;;;19.88;50.48
53858;BME280;39763;51.188;6.690;2022-07-04T00:33:40;101657.97;;;19.87;50.35
53858;BME280;39763;51.188;6.690;2022-07-04T00:35:12;101655.22;;;19.88;50.17
53858;BME280;39763;51.188;6.690;2022-07-04T00:36:45;101654.22;;;19.89;50.55
53858;BME280;39763;51.188;6.690;2022-07-04T00:38:17;101660.53;;;19.88;50.50
53858;BME280;39763;51.188;6.690;2022-07-04T00:39:49;101654.22;;;19.89;50.53
53858;BME280;39763;51.188;6.690;2022-07-04T00:41:20;101649.28;;;19.83;50.46
53858;BME280;39763;51.188;6.690;2022-07-04T00:42:52;101645.75;;;19.83;50.51
53858;BME280;39763;51.188;6.690;2022-07-04T00:44:24;101644.19;;;19.79;50.39
53858;BME280;39763;51.188;6.690;2022-07-04T00:45:56;101635.09;;;19.67;50.73
53858;BME280;39763;51.188;6.690;2022-07-04T00:47:28;101639.72;;;19.63;50.92
53858;BME280;39763;51.188;6.690;2022-07-04T00:49:00;101631.97;;;19.59;50.98
53858;BME280;39763;51.188;6.690;2022-07-04T00:50:32;101646.91;;;19.46;51.39
53858;BME280;39763;51.188;6.690;2022-07-04T00:52:06;101638.50;;;19.37;51.58
53858;BME280;39763;51.188;6.690;2022-07-04T00:53:38;101645.94;;;19.31;51.92
53858;BME280;39763;51.188;6.690;2022-07-04T00:55:10;101643.19;;;19.32;51.92
53858;BME280;39763;51.188;6.690;2022-07-04T00:56:43;101642.41;;;19.30;51.70
53858;BME280;39763;51.188;6.690;2022-07-04T00:58:19;101633.69;;;19.28;51.85
53858;BME280;39763;51.188;6.690;2022-07-04T00:59:51;101631.78;;;19.30;51.89
53858;BME280;39763;51.188;6.690;2022-07-04T01:01:23;101631.09;;;19.27;52.01
53858;BME280;39763;51.188;6.690;2022-07-04T01:02:55;101631.94;;;19.12;52.46
53858;BME280;39763;51.188;6.690;2022-07-04T01:04:27;101629.84;;;19.01;52.74
53858;BME280;39763;51.188;6.690;2022-07-04T01:05:59;101629.09;;;18.99;52.72
53858;BME280;39763;51.188;6.690;2022-07-04T01:07:33;101631.97;;;18.94;52.67
53858;BME280;39763;51.188;6.690;2022-07-04T01:09:05;101632.16;;;18.91;52.91
53858;BME280;39763;51.188;6.690;2022-07-04T01:10:37;101633.16;;;18.89;53.01
53858;BME280;39763;51.188;6.690;2022-07-04T01:12:08;101633.88;;;18.92;53.15
53858;BME280;39763;51.188;6.690;2022-07-04T01:13:41;101633.78;;;18.94;53.09
53858;BME280;39763;51.188;6.690;2022-07-04T01:15:13;101636.22;;;18.98;53.01
53858;BME280;39763;51.188;6.690;2022-07-04T01:16:45;101635.94;;;19.03;52.88
53858;BME280;39763;51.188;6.690;2022-07-04T01:18:17;101630.69;;;19.01;52.77
53858;BME280;39763;51.188;6.690;2022-07-04T01:19:48;101623.91;;;18.96;52.91
53858;BME280;39763;51.188;6.690;2022-07-04T01:21:22;101623.22;;;18.92;53.06
53858;BME280;39763;51.188;6.690;2022-07-04T01:22:53;101630.50;;;18.89;53.29
53858;BME280;39763;51.188;6.690;2022-07-04T01:24:25;101637.63;;;18.88;53.27
53858;BME280;39763;51.188;6.690;2022-07-04T01:25:58;101628.78;;;18.88;53.35
53858;BME280;39763;51.188;6.690;2022-07-04T01:27:30;101636.69;;;18.89;53.24
53858;BME280;39763;51.188;6.690;2022-07-04T01:29:02;101635.50;;;18.95;53.02
53858;BME280;39763;51.188;6.690;2022-07-04T01:30:35;101630.78;;;19.00;52.93
53858;BME280;39763;51.188;6.690;2022-07-04T01:32:08;101633.28;;;19.03;52.92
53858;BME280;39763;51.188;6.690;2022-07-04T01:33:40;101634.06;;;19.05;52.85
53858;BME280;39763;51.188;6.690;2022-07-04T01:35:12;101633.91;;;19.08;52.81
53858;BME280;39763;51.188;6.690;2022-07-04T01:36:44;101638.22;;;19.11;52.79
53858;BME280;39763;51.188;6.690;2022-07-04T01:38:16;101629.28;;;19.12;52.58
53858;BME280;39763;51.188;6.690;2022-07-04T01:39:48;101629.19;;;19.13;52.57
53858;BME280;39763;51.188;6.690;2022-07-04T01:41:20;101637.19;;;19.13;52.68
53858;BME280;39763;51.188;6.690;2022-07-04T01:42:52;101631.06;;;19.11;52.51
53858;BME280;39763;51.188;6.690;2022-07-04T01:44:23;101622.31;;;19.09;52.63
53858;BME280;39763;51.188;6.690;2022-07-04T01:45:55;101620.66;;;19.07;52.71
53858;BME280;39763;51.188;6.690;2022-07-04T01:47:27;101624.19;;;19.07;52.76
53858;BME280;39763;51.188;6.690;2022-07-04T01:48:59;101622.53;;;19.05;52.54
53858;BME280;39763;51.188;6.690;2022-07-04T01:50:31;101632.41;;;19.02;52.55
53858;BME280;39763;51.188;6.690;2022-07-04T01:52:04;101632.34;;;19.04;52.69
53858;BME280;39763;51.188;6.690;2022-07-04T01:53:36;101627.88;;;19.05;52.77
53858;BME280;39763;51.188;6.690;2022-07-04T01:55:09;101629.75;;;19.02;52.86
53858;BME280;39763;51.188;6.690;2022-07-04T01:56:42;101635.16;;;19.01;52.80
53858;BME280;39763;51.188;6.690;2022-07-04T01:58:14;101623.84;;;18.97;52.77
53858;BME280;39763;51.188;6.690;2022-07-04T01:59:46;101632.78;;;18.96;52.79
53858;BME280;39763;51.188;6.690;2022-07-04T02:01:39;101629.47;;;18.91;52.68
53858;BME280;39763;51.188;6.690;2022-07-04T02:03:11;101627.75;;;18.90;52.93
53858;BME280;39763;51.188;6.690;2022-07-04T02:04:43;101637.63;;;18.88;53.05
53858;BME280;39763;51.188;6.690;2022-07-04T02:06:15;101636.75;;;18.88;52.89
53858;BME280;39763;51.188;6.690;2022-07-04T02:07:48;101645.59;;;18.88;53.08
53858;BME280;39763;51.188;6.690;2022-07-04T02:09:20;101636.75;;;18.88;53.07
53858;BME280;39763;51.188;6.690;2022-07-04T02:10:52;101641.50;;;18.83;53.06
53858;BME280;39763;51.188;6.690;2022-07-04T02:12:24;101647.81;;;18.80;53.06
53858;BME280;39763;51.188;6.690;2022-07-04T02:14:14;101636.47;;;18.77;53.25
53858;BME280;39763;51.188;6.690;2022-07-04T02:15:46;101644.47;;;18.77;53.25
53858;BME280;39763;51.188;6.690;2022-07-04T02:17:18;101647.13;;;18.77;53.16
53858;BME280;39763;51.188;6.690;2022-07-04T02:18:49;101648.00;;;18.77;53.35
53858;BME280;39763;51.188;6.690;2022-07-04T02:20:22;101641.00;;;18.75;53.29
53858;BME280;39763;51.188;6.690;2022-07-04T02:21:54;101648.22;;;18.73;53.34
53858;BME280;39763;51.188;6.690;2022-07-04T02:23:27;101641.16;;;18.72;53.39
53858;BME280;39763;51.188;6.690;2022-07-04T02:24:58;101647.63;;;18.67;53.50
53858;BME280;39763;51.188;6.690;2022-07-04T02:26:30;101655.75;;;18.64;53.68
53858;BME280;39763;51.188;6.690;2022-07-04T02:28:02;101658.56;;;18.61;53.63
53858;BME280;39763;51.188;6.690;2022-07-04T02:29:34;101657.03;;;18.56;53.74
53858;BME280;39763;51.188;6.690;2022-07-04T02:31:06;101655.50;;;18.52;54.09
53858;BME280;39763;51.188;6.690;2022-07-04T02:32:38;101660.19;;;18.47;54.11
53858;BME280;39763;51.188;6.690;2022-07-04T02:34:10;101655.00;;;18.44;54.34
53858;BME280;39763;51.188;6.690;2022-07-04T02:35:42;101664.00;;;18.41;54.36
53858;BME280;39763;51.188;6.690;2022-07-04T02:37:14;101658.78;;;18.40;54.65
53858;BME280;39763;51.188;6.690;2022-07-04T02:38:47;101666.84;;;18.38;54.72
53858;BME280;39763;51.188;6.690;2022-07-04T02:40:18;101663.53;;;18.33;54.87
53858;BME280;39763;51.188;6.690;2022-07-04T02:41:50;101660.97;;;18.31;54.84
53858;BME280;39763;51.188;6.690;2022-07-04T02:43:27;101666.50;;;18.27;55.02
53858;BME280;39763;51.188;6.690;2022-07-04T02:44:59;101666.56;;;18.25;55.22
53858;BME280;39763;51.188;6.690;2022-07-04T02:46:31;101655.25;;;18.22;55.34
53858;BME280;39763;51.188;6.690;2022-07-04T02:48:04;101654.53;;;18.18;55.52
53858;BME280;39763;51.188;6.690;2022-07-04T02:49:36;101651.09;;;18.16;55.65
53858;BME280;39763;51.188;6.690;2022-07-04T02:51:08;101661.88;;;18.13;55.77
53858;BME280;39763;51.188;6.690;2022-07-04T02:52:40;101665.53;;;18.11;55.94
53858;BME280;39763;51.188;6.690;2022-07-04T02:54:14;101671.81;;;18.10;56.23
53858;BME280;39763;51.188;6.690;2022-07-04T02:55:45;101676.34;;;18.08;56.13
53858;BME280;39763;51.188;6.690;2022-07-04T02:57:17;101681.88;;;18.03;56.41
53858;BME280;39763;51.188;6.690;2022-07-04T02:58:49;101675.72;;;18.03;56.19
53858;BME280;39763;51.188;6.690;2022-07-04T03:00:21;101679.31;;;18.02;56.24
53858;BME280;39763;51.188;6.690;2022-07-04T03:01:53;101676.66;;;18.02;56.39
53858;BME280;39763;51.188;6.690;2022-07-04T03:03:24;101673.13;;;18.01;56.44
53858;BME280;39763;51.188;6.690;2022-07-04T03:04:56;101672.25;;;18.01;56.69
53858;BME280;39763;51.188;6.690;2022-07-04T03:06:28;101679.63;;;17.95;56.71
53858;BME280;39763;51.188;6.690;2022-07-04T03:08:00;101675.06;;;17.97;56.93
53858;BME280;39763;51.188;6.690;2022-07-04T03:09:33;101688.28;;;17.99;56.86
53858;BME280;39763;51.188;6.690;2022-07-04T03:11:05;101687.41;;;17.98;56.84
53858;BME280;39763;51.188;6.690;2022-07-04T03:12:38;101690.06;;;17.98;56.65
53858;BME280;39763;51.188;6.690;2022-07-04T03:14:09;101689.28;;;17.96;56.84
53858;BME280;39763;51.188;6.690;2022-07-04T03:15:41;101697.19;;;17.98;56.76
53858;BME280;39763;51.188;6.690;2022-07-04T03:17:13;101702.56;;;17.96;56.88
53858;BME280;39763;51.188;6.690;2022-07-04T03:18:45;101698.97;;;17.97;56.99
53858;BME280;39763;51.188;6.690;2022-07-04T03:20:16;101700.72;;;17.98;57.00
53858;BME280;39763;51.188;6.690;2022-07-04T03:21:48;101702.44;;;18.00;57.06
53858;BME280;39763;51.188;6.690;2022-07-04T03:23:20;101708.53;;;18.02;56.85
53858;BME280;39763;51.188;6.690;2022-07-04T03:24:53;101710.25;;;18.03;56.85
53858;BME280;39763;51.188;6.690;2022-07-04T03:26:25;101712.91;;;18.03;56.81
53858;BME280;39763;51.188;6.690;2022-07-04T03:27:57;101720.09;;;18.01;56.98
53858;BME280;39763;51.188;6.690;2022-07-04T03:29:29;101711.41;;;17.97;57.06
53858;BME280;39763;51.188;6.690;2022-07-04T03:31:01;101720.56;;;17.91;57.05
53858;BME280;39763;51.188;6.690;2022-07-04T03:32:33;101716.31;;;17.87;57.29
53858;BME280;39763;51.188;6.690;2022-07-04T03:34:04;101719.13;;;17.84;57.44
53858;BME280;39763;51.188;6.690;2022-07-04T03:35:36;101719.25;;;17.81;57.53
53858;BME280;39763;51.188;6.690;2022-07-04T03:37:08;101714.19;;;17.77;57.58
53858;BME280;39763;51.188;6.690;2022-07-04T03:38:40;101712.53;;;17.74;57.66
53858;BME280;39763;51.188;6.690;2022-07-04T03:40:13;101716.19;;;17.72;57.96
53858;BME280;39763;51.188;6.690;2022-07-04T03:41:45;101715.53;;;17.67;58.00
53858;BME280;39763;51.188;6.690;2022-07-04T03:43:16;101711.25;;;17.64;58.01
53858;BME280;39763;51.188;6.690;2022-07-04T03:44:48;101717.53;;;17.61;58.16
53858;BME280;39763;51.188;6.690;2022-07-04T03:46:21;101715.94;;;17.57;58.25
53858;BME280;39763;51.188;6.690;2022-07-04T03:47:52;101717.84;;;17.54;58.04
53858;BME280;39763;51.188;6.690;2022-07-04T03:49:24;101719.72;;;17.52;57.97
53858;BME280;39763;51.188;6.690;2022-07-04T03:50:56;101717.22;;;17.49;58.14
53858;BME280;39763;51.188;6.690;2022-07-04T03:52:28;101719.09;;;17.47;58.33
53858;BME280;39763;51.188;6.690;2022-07-04T03:54:00;101714.78;;;17.44;57.89
53858;BME280;39763;51.188;6.690;2022-07-04T03:55:33;101717.50;;;17.43;58.46
53858;BME280;39763;51.188;6.690;2022-07-04T03:57:05;101709.53;;;17.43;58.25
53858;BME280;39763;51.188;6.690;2022-07-04T03:58:37;101713.13;;;17.42;58.31
53858;BME280;39763;51.188;6.690;2022-07-04T04:00:09;101713.97;;;17.42;58.43
53858;BME280;39763;51.188;6.690;2022-07-04T04:01:44;101715.84;;;17.40;58.27
53858;BME280;39763;51.188;6.690;2022-07-04T04:03:16;101716.78;;;17.39;58.46
53858;BME280;39763;51.188;6.690;2022-07-04T04:05:07;101718.50;;;17.40;58.64
53858;BME280;39763;51.188;6.690;2022-07-04T04:06:57;101715.03;;;17.38;58.34
53858;BME280;39763;51.188;6.690;2022-07-04T04:08:29;101717.63;;;17.40;58.39
53858;BME280;39763;51.188;6.690;2022-07-04T04:10:01;101711.53;;;17.38;58.71
53858;BME280;39763;51.188;6.690;2022-07-04T04:11:34;101717.63;;;17.40;58.58
53858;BME280;39763;51.188;6.690;2022-07-04T04:13:05;101707.88;;;17.40;58.45
53858;BME280;39763;51.188;6.690;2022-07-04T04:14:38;101717.69;;;17.38;58.83
53858;BME280;39763;51.188;6.690;2022-07-04T04:16:09;101714.28;;;17.36;58.46
53858;BME280;39763;51.188;6.690;2022-07-04T04:17:41;101712.47;;;17.37;58.60
53858;BME280;39763;51.188;6.690;2022-07-04T04:19:13;101715.13;;;17.37;58.99
53858;BME280;39763;51.188;6.690;2022-07-04T04:20:45;101712.47;;;17.37;59.05
53858;BME280;39763;51.188;6.690;2022-07-04T04:22:16;101719.38;;;17.41;58.82
53858;BME280;39763;51.188;6.690;2022-07-04T04:23:48;101721.88;;;17.44;58.57
53858;BME280;39763;51.188;6.690;2022-07-04T04:25:20;101718.31;;;17.45;58.71
53858;BME280;39763;51.188;6.690;2022-07-04T04:26:53;101723.34;;;17.51;58.82
53858;BME280;39763;51.188;6.690;2022-07-04T04:28:25;101721.31;;;17.56;58.87
53858;BME280;39763;51.188;6.690;2022-07-04T04:29:56;101717.31;;;17.66;58.11
53858;BME280;39763;51.188;6.690;2022-07-04T04:31:28;101713.94;;;17.81;58.06
53858;BME280;39763;51.188;6.690;2022-07-04T04:33:00;101714.38;;;17.91;57.80
53858;BME280;39763;51.188;6.690;2022-07-04T04:34:32;101715.09;;;17.94;57.49
53858;BME280;39763;51.188;6.690;2022-07-04T04:36:05;101722.16;;;17.95;57.55
53858;BME280;39763;51.188;6.690;2022-07-04T04:37:36;101723.16;;;17.93;57.81
53858;BME280;39763;51.188;6.690;2022-07-04T04:39:08;101720.63;;;17.90;58.09
53858;BME280;39763;51.188;6.690;2022-07-04T04:40:40;101722.56;;;17.86;57.78
53858;BME280;39763;51.188;6.690;2022-07-04T04:42:13;101730.59;;;17.85;58.20
53858;BME280;39763;51.188;6.690;2022-07-04T04:43:45;101727.09;;;17.84;58.21
53858;BME280;39763;51.188;6.690;2022-07-04T04:45:23;101731.31;;;17.88;57.78
53858;BME280;39763;51.188;6.690;2022-07-04T04:46:55;101729.47;;;17.90;58.02
53858;BME280;39763;51.188;6.690;2022-07-04T04:48:26;101730.25;;;17.92;58.24
53858;BME280;39763;51.188;6.690;2022-07-04T04:49:58;101740.09;;;17.90;58.21
53858;BME280;39763;51.188;6.690;2022-07-04T04:51:30;101738.38;;;17.89;58.41
53858;BME280;39763;51.188;6.690;2022-07-04T04:53:02;101740.09;;;17.90;58.00
53858;BME280;39763;51.188;6.690;2022-07-04T04:54:33;101745.28;;;17.93;58.14
53858;BME280;39763;51.188;6.690;2022-07-04T04:56:05;101752.16;;;17.97;58.07
53858;BME280;39763;51.188;6.690;2022-07-04T04:57:38;101752.78;;;18.03;58.24
53858;BME280;39763;51.188;6.690;2022-07-04T04:59:10;101753.44;;;18.08;58.36
53858;BME280;39763;51.188;6.690;2022-07-04T05:00:42;101753.13;;;18.14;58.20
53858;BME280;39763;51.188;6.690;2022-07-04T05:02:33;101752.19;;;18.15;58.25
53858;BME280;39763;51.188;6.690;2022-07-04T05:04:05;101756.44;;;18.19;58.07
53858;BME280;39763;51.188;6.690;2022-07-04T05:05:37;101748.31;;;18.22;58.00
53858;BME280;39763;51.188;6.690;2022-07-04T05:07:09;101754.56;;;18.21;58.11
53858;BME280;39763;51.188;6.690;2022-07-04T05:08:40;101751.06;;;18.20;58.12
53858;BME280;39763;51.188;6.690;2022-07-04T05:10:12;101741.28;;;18.21;58.14
53858;BME280;39763;51.188;6.690;2022-07-04T05:11:44;101742.22;;;18.20;58.24
53858;BME280;39763;51.188;6.690;2022-07-04T05:13:18;101745.66;;;18.22;58.14
53858;BME280;39763;51.188;6.690;2022-07-04T05:14:49;101746.53;;;18.22;58.67
53858;BME280;39763;51.188;6.690;2022-07-04T05:16:21;101742.88;;;18.25;58.50
53858;BME280;39763;51.188;6.690;2022-07-04T05:17:53;101742.75;;;18.26;58.46
53858;BME280;39763;51.188;6.690;2022-07-04T05:19:25;101739.16;;;18.27;58.44
53858;BME280;39763;51.188;6.690;2022-07-04T05:20:57;101742.69;;;18.28;58.45
53858;BME280;39763;51.188;6.690;2022-07-04T05:22:29;101745.28;;;18.29;58.73
53858;BME280;39763;51.188;6.690;2022-07-04T05:24:01;101747.88;;;18.31;58.56
53858;BME280;39763;51.188;6.690;2022-07-04T05:25:33;101744.25;;;18.32;58.48
53858;BME280;39763;51.188;6.690;2022-07-04T05:27:05;101744.19;;;18.33;58.39
53858;BME280;39763;51.188;6.690;2022-07-04T05:28:38;101735.22;;;18.36;58.53
53858;BME280;39763;51.188;6.690;2022-07-04T05:30:11;101746.63;;;18.38;58.58
53858;BME280;39763;51.188;6.690;2022-07-04T05:31:42;101746.56;;;18.40;58.77
53858;BME280;39763;51.188;6.690;2022-07-04T05:33:14;101743.91;;;18.40;58.88
53858;BME280;39763;51.188;6.690;2022-07-04T05:34:46;101735.81;;;18.41;58.80
53858;BME280;39763;51.188;6.690;2022-07-04T05:36:18;101737.53;;;18.42;58.78
53858;BME280;39763;51.188;6.690;2022-07-04T05:37:50;101733.09;;;18.43;58.88
53858;BME280;39763;51.188;6.690;2022-07-04T05:39:22;101738.25;;;18.46;58.89
53858;BME280;39763;51.188;6.690;2022-07-04T05:40:54;101742.50;;;18.50;58.89
53858;BME280;39763;51.188;6.690;2022-07-04T05:42:26;101737.81;;;18.55;58.89
53858;BME280;39763;51.188;6.690;2022-07-04T05:43:59;101733.13;;;18.60;58.90
53858;BME280;39763;51.188;6.690;2022-07-04T05:45:31;101733.06;;;18.61;58.96
53858;BME280;39763;51.188;6.690;2022-07-04T05:47:03;101730.47;;;18.60;58.95
53858;BME280;39763;51.188;6.690;2022-07-04T05:48:35;101742.63;;;18.65;59.10
53858;BME280;39763;51.188;6.690;2022-07-04T05:50:08;101735.09;;;18.74;59.02
53858;BME280;39763;51.188;6.690;2022-07-04T05:51:41;101737.22;;;18.84;58.99
53858;BME280;39763;51.188;6.690;2022-07-04T05:53:13;101733.50;;;19.04;58.52
53858;BME280;39763;51.188;6.690;2022-07-04T05:54:44;101729.56;;;19.28;57.91
53858;BME280;39763;51.188;6.690;2022-07-04T05:56:17;101738.94;;;19.53;57.27
53858;BME280;39763;51.188;6.690;2022-07-04T05:57:49;101733.75;;;19.50;57.26
53858;BME280;39763;51.188;6.690;2022-07-04T05:59:22;101736.03;;;19.40;57.54
53858;BME280;39763;51.188;6.690;2022-07-04T06:00:54;101723.13;;;19.32;57.74
53858;BME280;39763;51.188;6.690;2022-07-04T06:02:26;101727.66;;;19.30;57.81
53858;BME280;39763;51.188;6.690;2022-07-04T06:03:58;101729.22;;;19.34;58.05
53858;BME280;39763;51.188;6.690;2022-07-04T06:05:29;101731.81;;;19.36;58.00
53858;BME280;39763;51.188;6.690;2022-07-04T06:07:02;101733.38;;;19.40;58.14
53858;BME280;39763;51.188;6.690;2022-07-04T06:08:33;101732.16;;;19.46;58.12
53858;BME280;39763;51.188;6.690;2022-07-04T06:10:06;101727.16;;;19.57;57.96
53858;BME280;39763;51.188;6.690;2022-07-04T06:11:38;101727.50;;;19.66;57.64
53858;BME280;39763;51.188;6.690;2022-07-04T06:13:10;101728.53;;;19.80;57.27
53858;BME280;39763;51.188;6.690;2022-07-04T06:14:43;101728.63;;;19.94;56.86
53858;BME280;39763;51.188;6.690;2022-07-04T06:16:16;101734.50;;;20.16;56.16
53858;BME280;39763;51.188;6.690;2022-07-04T06:17:48;101731.44;;;20.38;55.35
53858;BME280;39763;51.188;6.690;2022-07-04T06:19:20;101729.31;;;20.45;54.58
53858;BME280;39763;51.188;6.690;2022-07-04T06:20:51;101732.66;;;20.32;54.49
53858;BME280;39763;51.188;6.690;2022-07-04T06:22:23;101724.47;;;20.20;54.12
53858;BME280;39763;51.188;6.690;2022-07-04T06:23:56;101726.81;;;20.10;54.65
53858;BME280;39763;51.188;6.690;2022-07-04T06:25:29;101729.41;;;20.12;54.91
53858;BME280;39763;51.188;6.690;2022-07-04T06:27:01;101731.03;;;20.14;54.67
53858;BME280;39763;51.188;6.690;2022-07-04T06:28:34;101719.13;;;20.20;54.44
53858;BME280;39763;51.188;6.690;2022-07-04T06:30:24;101726.81;;;20.26;54.22
53858;BME280;39763;51.188;6.690;2022-07-04T06:32:02;101729.13;;;20.32;54.34
53858;BME280;39763;51.188;6.690;2022-07-04T06:33:42;101720.88;;;20.36;54.20
53858;BME280;39763;51.188;6.690;2022-07-04T06:35:37;101726.81;;;20.41;54.03
53858;BME280;39763;51.188;6.690;2022-07-04T06:37:39;101728.44;;;20.44;53.80
53858;BME280;39763;51.188;6.690;2022-07-04T06:39:12;101723.97;;;20.45;53.46
53858;BME280;39763;51.188;6.690;2022-07-04T06:40:48;101735.91;;;20.53;53.37
53858;BME280;39763;51.188;6.690;2022-07-04T06:42:20;101720.41;;;20.60;53.03
53858;BME280;39763;51.188;6.690;2022-07-04T06:43:56;101735.25;;;20.64;52.34
53858;BME280;39763;51.188;6.690;2022-07-04T06:45:38;101730.31;;;20.58;52.21
53858;BME280;39763;51.188;6.690;2022-07-04T06:47:27;101732.97;;;20.58;52.15
53858;BME280;39763;51.188;6.690;2022-07-04T06:49:01;101743.94;;;20.67;51.88
53858;BME280;39763;51.188;6.690;2022-07-04T06:50:41;101737.88;;;20.80;51.71
53858;BME280;39763;51.188;6.690;2022-07-04T06:52:24;101747.06;;;20.90;51.31
53858;BME280;39763;51.188;6.690;2022-07-04T06:54:01;101741.94;;;21.01;50.79
53858;BME280;39763;51.188;6.690;2022-07-04T06:55:34;101746.81;;;21.08;50.50
53858;BME280;39763;51.188;6.690;2022-07-04T06:57:10;101735.94;;;21.11;49.76
53858;BME280;39763;51.188;6.690;2022-07-04T06:59:06;101738.50;;;21.13;49.53
53858;BME280;39763;51.188;6.690;2022-07-04T07:00:42;101744.63;;;21.15;49.17
53858;BME280;39763;51.188;6.690;2022-07-04T07:02:15;101741.97;;;21.15;48.96
53858;BME280;39763;51.188;6.690;2022-07-04T07:04:20;101734.25;;;21.25;49.08
53858;BME280;39763;51.188;6.690;2022-07-04T07:05:58;101735.53;;;21.33;48.32
53858;BME280;39763;51.188;6.690;2022-07-04T07:07:32;101737.78;;;21.39;48.19
53858;BME280;39763;51.188;6.690;2022-07-04T07:09:03;101737.50;;;21.44;48.40
53858;BME280;39763;51.188;6.690;2022-07-04T07:10:39;101738.66;;;21.54;48.34
53858;BME280;39763;51.188;6.690;2022-07-04T07:12:26;101734.22;;;21.67;48.25
53858;BME280;39763;51.188;6.690;2022-07-04T07:14:06;101738.81;;;21.79;48.01
53858;BME280;39763;51.188;6.690;2022-07-04T07:15:38;101730.19;;;21.89;47.89
53858;BME280;39763;51.188;6.690;2022-07-04T07:17:11;101729.06;;;21.93;47.54
53858;BME280;39763;51.188;6.690;2022-07-04T07:18:45;101733.34;;;21.95;47.44
53858;BME280;39763;51.188;6.690;2022-07-04T07:20:21;101740.41;;;21.96;47.50
53858;BME280;39763;51.188;6.690;2022-07-04T07:22:09;101737.56;;;21.99;47.04
53858;BME280;39763;51.188;6.690;2022-07-04T07:23:45;101745.56;;;21.99;46.90
53858;BME280;39763;51.188;6.690;2022-07-04T07:25:17;101736.97;;;21.94;46.68
53858;BME280;39763;51.188;6.690;2022-07-04T07:26:53;101728.19;;;21.92;46.71
53858;BME280;39763;51.188;6.690;2022-07-04T07:28:35;101733.63;;;21.91;46.62
53858;BME280;39763;51.188;6.690;2022-07-04T07:30:16;101731.53;;;21.96;46.56
53858;BME280;39763;51.188;6.690;2022-07-04T07:31:48;101727.53;;;22.03;46.68
53858;BME280;39763;51.188;6.690;2022-07-04T07:33:21;101729.91;;;22.07;46.50
53858;BME280;39763;51.188;6.690;2022-07-04T07:35:04;101734.31;;;22.08;46.25
53858;BME280;39763;51.188;6.690;2022-07-04T07:36:44;101733.13;;;22.12;46.08
53858;BME280;39763;51.188;6.690;2022-07-04T07:38:24;101733.59;;;22.19;45.63
53858;BME280;39763;51.188;6.690;2022-07-04T07:40:02;101733.06;;;22.27;45.53
53858;BME280;39763;51.188;6.690;2022-07-04T07:41:34;101729.69;;;22.37;45.27
53858;BME280;39763;51.188;6.690;2022-07-04T07:43:06;101728.50;;;22.41;45.07
53858;BME280;39763;51.188;6.690;2022-07-04T07:44:38;101723.91;;;22.43;44.87
53858;BME280;39763;51.188;6.690;2022-07-04T07:46:10;101725.63;;;22.44;44.99
53858;BME280;39763;51.188;6.690;2022-07-04T07:47:41;101728.13;;;22.47;45.09
53858;BME280;39763;51.188;6.690;2022-07-04T07:49:15;101727.63;;;22.55;44.95
53858;BME280;39763;51.188;6.690;2022-07-04T07:50:46;101723.75;;;22.59;44.71
53858;BME280;39763;51.188;6.690;2022-07-04T07:52:18;101728.91;;;22.62;44.43
53858;BME280;39763;51.188;6.690;2022-07-04T07:53:56;101738.75;;;22.62;43.74
53858;BME280;39763;51.188;6.690;2022-07-04T07:55:47;101732.97;;;22.55;43.05
53858;BME280;39763;51.188;6.690;2022-07-04T07:57:19;101737.13;;;22.59;42.96
53858;BME280;39763;51.188;6.690;2022-07-04T07:58:51;101736.44;;;22.70;43.27
53858;BME280;39763;51.188;6.690;2022-07-04T08:00:23;101735.94;;;22.77;43.32
53858;BME280;39763;51.188;6.690;2022-07-04T08:02:15;101728.66;;;22.79;43.34
53858;BME280;39763;51.188;6.690;2022-07-04T08:03:47;101732.19;;;22.80;43.38
53858;BME280;39763;51.188;6.690;2022-07-04T08:05:44;101736.69;;;22.92;43.28
53858;BME280;39763;51.188;6.690;2022-07-04T08:07:16;101731.22;;;22.94;41.44
53858;BME280;39763;51.188;6.690;2022-07-04T08:08:53;101748.63;;;22.74;41.95
53858;BME280;39763;51.188;6.690;2022-07-04T08:10:25;101734.91;;;22.66;41.22